sensor_id;sensor_type;location;lat;lon;timestamp;P1;durP1;ratioP1;P2;durP2;ratioP2
75584;SDS011;64162;53.508;10.476;2023-02-21T00:00:13;1.58;;;0.35;;
75584;SDS011;64162;53.508;10.476;2023-02-21T00:02:58;1.60;;;0.30;;
75584;SDS011;64162;53.508;10.476;2023-02-21T00:05:44;1.13;;;0.52;;
75584;SDS011;64162;53.508;10.476;2023-02-21T00:08:29;2.58;;;0.20;;
75584;SDS011;64162;53.508;10.476;2023-02-21T00:11:14;2.75;;;0.05;;
75584;SDS011;64162;53.508;10.476;2023-02-21T00:13:59;2.35;;;0.55;;
75584;SDS011;64162;53.508;10.476;2023-02-21T00:16:44;1.67;;;0.20;;
75584;SDS011;64162;53.508;10.476;2023-02-21T00:19:30;1.60;;;0.40;;
75584;SDS011;64162;53.508;10.476;2023-02-21T00:22:15;3.78;;;0.30;;
75584;SDS011;64162;53.508;10.476;2023-02-21T00:25:00;3.08;;;1.02;;
75584;SDS011;64162;53.508;10.476;2023-02-21T00:27:45;2.08;;;0.63;;
75584;SDS011;64162;53.508;10.476;2023-02-21T00:30:30;1.52;;;0.40;;
75584;SDS011;64162;53.508;10.476;2023-02-21T00:33:15;2.38;;;0.45;;
75584;SDS011;64162;53.508;10.476;2023-02-21T00:36:00;0.90;;;0.20;;
75584;SDS011;64162;53.508;10.476;2023-02-21T00:38:46;1.10;;;0.30;;
75584;SDS011;64162;53.508;10.476;2023-02-21T00:41:31;1.33;;;0.30;;
75584;SDS011;64162;53.508;10.476;2023-02-21T00:44:16;4.65;;;0.20;;
75584;SDS011;64162;53.508;10.476;2023-02-21T00:47:01;2.67;;;0.28;;
75584;SDS011;64162;53.508;10.476;2023-02-21T00:49:46;3.60;;;3.30;;
75584;SDS011;64162;53.508;10.476;2023-02-21T00:52:31;1.83;;;0.68;;
75584;SDS011;64162;53.508;10.476;2023-02-21T00:55:16;1.92;;;0.22;;
75584;SDS011;64162;53.508;10.476;2023-02-21T00:58:02;0.50;;;0.47;;
75584;SDS011;64162;53.508;10.476;2023-02-21T01:00:47;2.72;;;0.45;;
75584;SDS011;64162;53.508;10.476;2023-02-21T01:03:32;2.50;;;0.47;;
75584;SDS011;64162;53.508;10.476;2023-02-21T01:06:18;4.30;;;0.43;;
75584;SDS011;64162;53.508;10.476;2023-02-21T01:09:03;1.55;;;0.22;;
75584;SDS011;64162;53.508;10.476;2023-02-21T01:11:48;2.80;;;0.30;;
75584;SDS011;64162;53.508;10.476;2023-02-21T01:14:33;2.78;;;0.63;;
75584;SDS011;64162;53.508;10.476;2023-02-21T01:17:18;2.03;;;0.93;;
75584;SDS011;64162;53.508;10.476;2023-02-21T01:20:04;1.52;;;0.68;;
75584;SDS011;64162;53.508;10.476;2023-02-21T01:22:50;3.45;;;0.22;;
75584;SDS011;64162;53.508;10.476;2023-02-21T01:25:35;6.13;;;1.98;;
75584;SDS011;64162;53.508;10.476;2023-02-21T01:28:20;1.40;;;0.47;;
75584;SDS011;64162;53.508;10.476;2023-02-21T01:31:05;2.45;;;0.57;;
75584;SDS011;64162;53.508;10.476;2023-02-21T01:33:50;4.50;;;0.50;;
75584;SDS011;64162;53.508;10.476;2023-02-21T01:36:35;0.55;;;0.30;;
75584;SDS011;64162;53.508;10.476;2023-02-21T01:39:24;2.45;;;0.20;;
75584;SDS011;64162;53.508;10.476;2023-02-21T01:42:09;4.78;;;0.10;;
75584;SDS011;64162;53.508;10.476;2023-02-21T01:48:10;1.75;;;1.65;;
75584;SDS011;64162;53.508;10.476;2023-02-21T01:50:57;2.88;;;0.50;;
75584;SDS011;64162;53.508;10.476;2023-02-21T01:53:43;1.67;;;0.15;;
75584;SDS011;64162;53.508;10.476;2023-02-21T01:56:29;2.53;;;0.13;;
75584;SDS011;64162;53.508;10.476;2023-02-21T01:59:15;1.33;;;0.28;;
75584;SDS011;64162;53.508;10.476;2023-02-21T02:02:05;1.90;;;0.40;;
75584;SDS011;64162;53.508;10.476;2023-02-21T02:05:12;1.63;;;0.28;;
75584;SDS011;64162;53.508;10.476;2023-02-21T02:07:58;1.35;;;0.30;;
75584;SDS011;64162;53.508;10.476;2023-02-21T02:10:43;1.58;;;0.20;;
75584;SDS011;64162;53.508;10.476;2023-02-21T02:13:50;1.55;;;0.43;;
75584;SDS011;64162;53.508;10.476;2023-02-21T02:27:55;1.15;;;0.28;;
75584;SDS011;64162;53.508;10.476;2023-02-21T02:37:34;0.88;;;0.43;;
75584;SDS011;64162;53.508;10.476;2023-02-21T02:40:28;1.92;;;0.13;;
75584;SDS011;64162;53.508;10.476;2023-02-21T02:45:51;0.45;;;0.20;;
75584;SDS011;64162;53.508;10.476;2023-02-21T02:48:20;0.70;;;0.55;;
75584;SDS011;64162;53.508;10.476;2023-02-21T02:50:53;1.23;;;0.15;;
75584;SDS011;64162;53.508;10.476;2023-02-21T02:53:22;3.35;;;0.40;;
75584;SDS011;64162;53.508;10.476;2023-02-21T02:55:55;0.80;;;0.15;;
75584;SDS011;64162;53.508;10.476;2023-02-21T02:58:24;2.90;;;2.70;;
75584;SDS011;64162;53.508;10.476;2023-02-21T03:14:46;2.67;;;0.25;;
75584;SDS011;64162;53.508;10.476;2023-02-21T03:17:21;0.98;;;0.43;;
75584;SDS011;64162;53.508;10.476;2023-02-21T03:19:51;1.58;;;0.20;;
75584;SDS011;64162;53.508;10.476;2023-02-21T03:22:21;1.25;;;0.30;;
75584;SDS011;64162;53.508;10.476;2023-02-21T03:24:52;1.08;;;0.22;;
75584;SDS011;64162;53.508;10.476;2023-02-21T03:27:20;2.60;;;0.57;;
75584;SDS011;64162;53.508;10.476;2023-02-21T03:29:55;3.88;;;1.65;;
75584;SDS011;64162;53.508;10.476;2023-02-21T03:32:37;2.42;;;0.70;;
75584;SDS011;64162;53.508;10.476;2023-02-21T03:37:35;2.42;;;0.35;;
75584;SDS011;64162;53.508;10.476;2023-02-21T03:40:13;3.17;;;0.82;;
75584;SDS011;64162;53.508;10.476;2023-02-21T03:42:46;2.63;;;0.22;;
75584;SDS011;64162;53.508;10.476;2023-02-21T03:45:15;2.42;;;0.15;;
75584;SDS011;64162;53.508;10.476;2023-02-21T03:47:46;1.85;;;0.20;;
75584;SDS011;64162;53.508;10.476;2023-02-21T03:50:13;4.93;;;0.43;;
75584;SDS011;64162;53.508;10.476;2023-02-21T03:52:42;3.72;;;0.38;;
75584;SDS011;64162;53.508;10.476;2023-02-21T03:55:09;3.10;;;0.30;;
75584;SDS011;64162;53.508;10.476;2023-02-21T03:57:36;3.28;;;0.60;;
75584;SDS011;64162;53.508;10.476;2023-02-21T04:00:03;4.47;;;2.13;;
75584;SDS011;64162;53.508;10.476;2023-02-21T04:02:40;4.85;;;0.40;;
75584;SDS011;64162;53.508;10.476;2023-02-21T04:05:09;3.13;;;0.13;;
75584;SDS011;64162;53.508;10.476;2023-02-21T04:07:36;5.28;;;0.55;;
75584;SDS011;64162;53.508;10.476;2023-02-21T04:10:02;4.15;;;0.40;;
75584;SDS011;64162;53.508;10.476;2023-02-21T04:12:38;4.32;;;0.35;;
75584;SDS011;64162;53.508;10.476;2023-02-21T04:15:05;3.17;;;0.80;;
75584;SDS011;64162;53.508;10.476;2023-02-21T04:17:33;7.70;;;3.22;;
75584;SDS011;64162;53.508;10.476;2023-02-21T04:20:02;9.52;;;0.25;;
75584;SDS011;64162;53.508;10.476;2023-02-21T04:22:32;7.10;;;0.70;;
75584;SDS011;64162;53.508;10.476;2023-02-21T04:24:59;6.15;;;0.52;;
75584;SDS011;64162;53.508;10.476;2023-02-21T04:27:28;10.60;;;1.65;;
75584;SDS011;64162;53.508;10.476;2023-02-21T04:29:55;9.35;;;1.25;;
75584;SDS011;64162;53.508;10.476;2023-02-21T04:32:22;9.52;;;0.80;;
75584;SDS011;64162;53.508;10.476;2023-02-21T04:34:48;14.18;;;1.65;;
75584;SDS011;64162;53.508;10.476;2023-02-21T04:37:15;12.20;;;1.73;;
75584;SDS011;64162;53.508;10.476;2023-02-21T04:39:42;14.98;;;1.17;;
75584;SDS011;64162;53.508;10.476;2023-02-21T04:42:09;16.13;;;1.30;;
75584;SDS011;64162;53.508;10.476;2023-02-21T04:44:35;13.32;;;1.70;;
75584;SDS011;64162;53.508;10.476;2023-02-21T04:47:03;12.40;;;1.13;;
75584;SDS011;64162;53.508;10.476;2023-02-21T04:49:30;14.05;;;1.70;;
75584;SDS011;64162;53.508;10.476;2023-02-21T04:51:56;16.50;;;2.10;;
75584;SDS011;64162;53.508;10.476;2023-02-21T04:54:23;15.57;;;1.83;;
75584;SDS011;64162;53.508;10.476;2023-02-21T04:56:49;13.82;;;1.08;;
75584;SDS011;64162;53.508;10.476;2023-02-21T04:59:16;15.70;;;1.70;;
75584;SDS011;64162;53.508;10.476;2023-02-21T05:01:43;21.40;;;2.10;;
75584;SDS011;64162;53.508;10.476;2023-02-21T05:04:09;17.38;;;1.42;;
75584;SDS011;64162;53.508;10.476;2023-02-21T05:06:36;10.77;;;1.33;;
75584;SDS011;64162;53.508;10.476;2023-02-21T05:09:03;14.23;;;1.10;;
75584;SDS011;64162;53.508;10.476;2023-02-21T05:11:31;18.50;;;1.00;;
75584;SDS011;64162;53.508;10.476;2023-02-21T05:14:00;14.32;;;1.27;;
75584;SDS011;64162;53.508;10.476;2023-02-21T05:16:27;12.27;;;0.70;;
75584;SDS011;64162;53.508;10.476;2023-02-21T05:18:53;15.75;;;1.42;;
75584;SDS011;64162;53.508;10.476;2023-02-21T05:21:20;16.88;;;1.65;;
75584;SDS011;64162;53.508;10.476;2023-02-21T05:23:47;10.52;;;1.02;;
75584;SDS011;64162;53.508;10.476;2023-02-21T05:26:24;13.55;;;2.53;;
75584;SDS011;64162;53.508;10.476;2023-02-21T05:28:52;14.82;;;0.40;;
75584;SDS011;64162;53.508;10.476;2023-02-21T05:31:19;17.38;;;1.00;;
75584;SDS011;64162;53.508;10.476;2023-02-21T05:33:46;11.43;;;1.02;;
75584;SDS011;64162;53.508;10.476;2023-02-21T05:36:13;7.03;;;0.98;;
75584;SDS011;64162;53.508;10.476;2023-02-21T05:38:58;10.65;;;0.68;;
75584;SDS011;64162;53.508;10.476;2023-02-21T05:41:24;17.30;;;0.65;;
75584;SDS011;64162;53.508;10.476;2023-02-21T05:43:51;11.57;;;0.52;;
75584;SDS011;64162;53.508;10.476;2023-02-21T05:46:25;14.25;;;1.00;;
75584;SDS011;64162;53.508;10.476;2023-02-21T05:48:54;10.82;;;0.55;;
75584;SDS011;64162;53.508;10.476;2023-02-21T05:51:21;14.57;;;0.30;;
75584;SDS011;64162;53.508;10.476;2023-02-21T05:53:48;16.85;;;0.65;;
75584;SDS011;64162;53.508;10.476;2023-02-21T05:56:15;15.68;;;0.63;;
75584;SDS011;64162;53.508;10.476;2023-02-21T05:58:43;13.45;;;1.17;;
75584;SDS011;64162;53.508;10.476;2023-02-21T06:01:10;19.90;;;1.05;;
75584;SDS011;64162;53.508;10.476;2023-02-21T06:03:37;18.38;;;1.88;;
75584;SDS011;64162;53.508;10.476;2023-02-21T06:06:03;22.17;;;1.80;;
75584;SDS011;64162;53.508;10.476;2023-02-21T06:08:30;19.23;;;0.90;;
75584;SDS011;64162;53.508;10.476;2023-02-21T06:10:57;23.40;;;2.05;;
75584;SDS011;64162;53.508;10.476;2023-02-21T06:13:23;25.05;;;1.30;;
75584;SDS011;64162;53.508;10.476;2023-02-21T06:15:50;17.52;;;0.80;;
75584;SDS011;64162;53.508;10.476;2023-02-21T06:18:16;19.42;;;1.58;;
75584;SDS011;64162;53.508;10.476;2023-02-21T06:20:43;17.05;;;0.93;;
75584;SDS011;64162;53.508;10.476;2023-02-21T06:23:09;15.57;;;0.63;;
75584;SDS011;64162;53.508;10.476;2023-02-21T06:25:36;19.90;;;1.63;;
75584;SDS011;64162;53.508;10.476;2023-02-21T06:28:02;19.00;;;1.70;;
75584;SDS011;64162;53.508;10.476;2023-02-21T06:30:30;18.65;;;1.08;;
75584;SDS011;64162;53.508;10.476;2023-02-21T06:32:56;19.42;;;1.77;;
75584;SDS011;64162;53.508;10.476;2023-02-21T06:35:23;15.75;;;1.25;;
75584;SDS011;64162;53.508;10.476;2023-02-21T06:37:49;19.83;;;1.33;;
75584;SDS011;64162;53.508;10.476;2023-02-21T06:40:16;18.85;;;1.05;;
75584;SDS011;64162;53.508;10.476;2023-02-21T06:42:42;20.98;;;1.75;;
75584;SDS011;64162;53.508;10.476;2023-02-21T06:45:09;21.83;;;1.77;;
75584;SDS011;64162;53.508;10.476;2023-02-21T06:47:36;23.73;;;1.63;;
75584;SDS011;64162;53.508;10.476;2023-02-21T06:50:03;26.75;;;1.10;;
75584;SDS011;64162;53.508;10.476;2023-02-21T06:52:30;18.45;;;1.50;;
75584;SDS011;64162;53.508;10.476;2023-02-21T06:54:57;19.17;;;1.98;;
75584;SDS011;64162;53.508;10.476;2023-02-21T06:57:23;20.08;;;0.93;;
75584;SDS011;64162;53.508;10.476;2023-02-21T06:59:50;17.98;;;1.73;;
75584;SDS011;64162;53.508;10.476;2023-02-21T07:02:17;12.88;;;0.70;;
75584;SDS011;64162;53.508;10.476;2023-02-21T07:04:45;25.48;;;1.90;;
75584;SDS011;64162;53.508;10.476;2023-02-21T07:07:12;23.73;;;1.17;;
75584;SDS011;64162;53.508;10.476;2023-02-21T07:09:40;24.08;;;2.03;;
75584;SDS011;64162;53.508;10.476;2023-02-21T07:12:06;20.38;;;1.58;;
75584;SDS011;64162;53.508;10.476;2023-02-21T07:14:34;38.40;;;1.10;;
75584;SDS011;64162;53.508;10.476;2023-02-21T07:17:00;15.93;;;0.70;;
75584;SDS011;64162;53.508;10.476;2023-02-21T07:19:27;22.58;;;1.30;;
75584;SDS011;64162;53.508;10.476;2023-02-21T07:21:53;32.83;;;1.50;;
75584;SDS011;64162;53.508;10.476;2023-02-21T07:24:20;24.50;;;1.50;;
75584;SDS011;64162;53.508;10.476;2023-02-21T07:26:47;13.38;;;1.67;;
75584;SDS011;64162;53.508;10.476;2023-02-21T07:29:13;15.98;;;1.40;;
75584;SDS011;64162;53.508;10.476;2023-02-21T07:31:40;29.88;;;2.88;;
75584;SDS011;64162;53.508;10.476;2023-02-21T07:34:07;15.27;;;0.77;;
75584;SDS011;64162;53.508;10.476;2023-02-21T07:36:35;19.70;;;1.02;;
75584;SDS011;64162;53.508;10.476;2023-02-21T07:39:05;23.23;;;1.65;;
75584;SDS011;64162;53.508;10.476;2023-02-21T07:41:31;25.73;;;1.00;;
75584;SDS011;64162;53.508;10.476;2023-02-21T07:43:58;31.13;;;1.63;;
75584;SDS011;64162;53.508;10.476;2023-02-21T07:46:26;23.42;;;0.90;;
75584;SDS011;64162;53.508;10.476;2023-02-21T07:48:53;25.02;;;1.60;;
75584;SDS011;64162;53.508;10.476;2023-02-21T07:51:20;16.48;;;0.17;;
75584;SDS011;64162;53.508;10.476;2023-02-21T07:53:50;14.38;;;0.30;;
75584;SDS011;64162;53.508;10.476;2023-02-21T07:56:17;55.85;;;51.63;;
75584;SDS011;64162;53.508;10.476;2023-02-21T07:58:43;140.27;;;134.18;;
75584;SDS011;64162;53.508;10.476;2023-02-21T08:01:10;305.25;;;294.02;;
75584;SDS011;64162;53.508;10.476;2023-02-21T08:03:37;334.10;;;323.27;;
75584;SDS011;64162;53.508;10.476;2023-02-21T08:06:07;393.42;;;380.75;;
75584;SDS011;64162;53.508;10.476;2023-02-21T08:08:35;357.98;;;346.52;;
75584;SDS011;64162;53.508;10.476;2023-02-21T08:11:01;413.45;;;399.48;;
75584;SDS011;64162;53.508;10.476;2023-02-21T08:13:28;424.40;;;410.95;;
75584;SDS011;64162;53.508;10.476;2023-02-21T08:15:55;737.45;;;716.78;;
75584;SDS011;64162;53.508;10.476;2023-02-21T08:18:22;419.98;;;405.63;;
75584;SDS011;64162;53.508;10.476;2023-02-21T08:23:18;414.55;;;401.35;;
75584;SDS011;64162;53.508;10.476;2023-02-21T08:25:45;83.57;;;78.55;;
75584;SDS011;64162;53.508;10.476;2023-02-21T08:28:12;50.38;;;47.05;;
75584;SDS011;64162;53.508;10.476;2023-02-21T08:30:39;50.20;;;46.50;;
75584;SDS011;64162;53.508;10.476;2023-02-21T08:33:06;50.45;;;47.75;;
75584;SDS011;64162;53.508;10.476;2023-02-21T08:35:33;47.80;;;44.90;;
75584;SDS011;64162;53.508;10.476;2023-02-21T08:37:59;44.38;;;41.25;;
75584;SDS011;64162;53.508;10.476;2023-02-21T08:40:29;45.75;;;42.72;;
75584;SDS011;64162;53.508;10.476;2023-02-21T08:42:57;47.60;;;43.28;;
75584;SDS011;64162;53.508;10.476;2023-02-21T08:45:25;47.03;;;43.72;;
75584;SDS011;64162;53.508;10.476;2023-02-21T08:47:53;48.28;;;45.20;;
75584;SDS011;64162;53.508;10.476;2023-02-21T08:50:20;53.90;;;50.80;;
75584;SDS011;64162;53.508;10.476;2023-02-21T08:52:48;106.05;;;101.20;;
75584;SDS011;64162;53.508;10.476;2023-02-21T08:55:16;66.57;;;62.47;;
75584;SDS011;64162;53.508;10.476;2023-02-21T08:57:46;50.92;;;47.92;;
75584;SDS011;64162;53.508;10.476;2023-02-21T09:00:15;52.75;;;48.78;;
75584;SDS011;64162;53.508;10.476;2023-02-21T09:02:42;58.17;;;54.28;;
75584;SDS011;64162;53.508;10.476;2023-02-21T09:05:13;46.88;;;43.95;;
75584;SDS011;64162;53.508;10.476;2023-02-21T09:07:42;48.53;;;45.08;;
75584;SDS011;64162;53.508;10.476;2023-02-21T09:10:10;49.08;;;45.38;;
75584;SDS011;64162;53.508;10.476;2023-02-21T09:12:37;43.90;;;40.75;;
75584;SDS011;64162;53.508;10.476;2023-02-21T09:15:04;40.28;;;37.28;;
75584;SDS011;64162;53.508;10.476;2023-02-21T09:17:31;35.92;;;33.80;;
75584;SDS011;64162;53.508;10.476;2023-02-21T09:20:03;31.17;;;29.05;;
75584;SDS011;64162;53.508;10.476;2023-02-21T09:22:32;37.20;;;34.50;;
75584;SDS011;64162;53.508;10.476;2023-02-21T09:24:59;27.00;;;24.17;;
75584;SDS011;64162;53.508;10.476;2023-02-21T09:27:26;27.73;;;25.35;;
75584;SDS011;64162;53.508;10.476;2023-02-21T09:30:03;29.33;;;27.38;;
75584;SDS011;64162;53.508;10.476;2023-02-21T09:32:35;26.45;;;24.85;;
75584;SDS011;64162;53.508;10.476;2023-02-21T09:35:03;29.92;;;27.58;;
75584;SDS011;64162;53.508;10.476;2023-02-21T09:37:30;26.38;;;23.70;;
75584;SDS011;64162;53.508;10.476;2023-02-21T09:39:57;23.67;;;21.88;;
75584;SDS011;64162;53.508;10.476;2023-02-21T09:42:29;24.25;;;22.52;;
75584;SDS011;64162;53.508;10.476;2023-02-21T09:44:56;21.60;;;19.92;;
75584;SDS011;64162;53.508;10.476;2023-02-21T09:49:54;22.10;;;19.60;;
75584;SDS011;64162;53.508;10.476;2023-02-21T09:52:32;21.50;;;19.35;;
75584;SDS011;64162;53.508;10.476;2023-02-21T09:55:07;13.50;;;11.88;;
75584;SDS011;64162;53.508;10.476;2023-02-21T09:57:39;13.18;;;11.77;;
75584;SDS011;64162;53.508;10.476;2023-02-21T10:00:26;16.38;;;10.75;;
75584;SDS011;64162;53.508;10.476;2023-02-21T10:08:39;18.02;;;9.27;;
75584;SDS011;64162;53.508;10.476;2023-02-21T10:19:50;12.05;;;7.30;;
75584;SDS011;64162;53.508;10.476;2023-02-21T10:22:22;16.38;;;5.97;;
75584;SDS011;64162;53.508;10.476;2023-02-21T10:24:52;10.32;;;6.57;;
75584;SDS011;64162;53.508;10.476;2023-02-21T10:27:20;16.67;;;8.25;;
75584;SDS011;64162;53.508;10.476;2023-02-21T10:29:51;17.83;;;16.48;;
75584;SDS011;64162;53.508;10.476;2023-02-21T10:32:23;13.25;;;6.18;;
75584;SDS011;64162;53.508;10.476;2023-02-21T10:34:50;9.57;;;6.97;;
75584;SDS011;64162;53.508;10.476;2023-02-21T10:37:42;17.00;;;5.78;;
75584;SDS011;64162;53.508;10.476;2023-02-21T10:43:02;12.75;;;6.07;;
75584;SDS011;64162;53.508;10.476;2023-02-21T10:45:36;11.93;;;4.13;;
75584;SDS011;64162;53.508;10.476;2023-02-21T10:48:19;13.45;;;7.05;;
75584;SDS011;64162;53.508;10.476;2023-02-21T10:51:12;13.02;;;5.07;;
75584;SDS011;64162;53.508;10.476;2023-02-21T10:53:37;11.57;;;5.65;;
75584;SDS011;64162;53.508;10.476;2023-02-21T10:58:44;10.60;;;4.78;;
75584;SDS011;64162;53.508;10.476;2023-02-21T11:01:18;12.73;;;5.82;;
75584;SDS011;64162;53.508;10.476;2023-02-21T11:03:48;13.65;;;3.92;;
75584;SDS011;64162;53.508;10.476;2023-02-21T11:06:26;9.38;;;4.10;;
75584;SDS011;64162;53.508;10.476;2023-02-21T11:08:56;12.68;;;3.50;;
75584;SDS011;64162;53.508;10.476;2023-02-21T11:11:41;15.30;;;4.38;;
75584;SDS011;64162;53.508;10.476;2023-02-21T11:16:44;9.65;;;3.60;;
75584;SDS011;64162;53.508;10.476;2023-02-21T11:19:11;8.10;;;3.58;;
75584;SDS011;64162;53.508;10.476;2023-02-21T11:21:40;8.73;;;3.75;;
75584;SDS011;64162;53.508;10.476;2023-02-21T11:24:07;8.60;;;4.65;;
75584;SDS011;64162;53.508;10.476;2023-02-21T11:26:44;7.22;;;3.90;;
75584;SDS011;64162;53.508;10.476;2023-02-21T11:29:15;10.27;;;6.13;;
75584;SDS011;64162;53.508;10.476;2023-02-21T11:31:44;7.30;;;3.53;;
75584;SDS011;64162;53.508;10.476;2023-02-21T11:34:12;8.68;;;2.72;;
75584;SDS011;64162;53.508;10.476;2023-02-21T11:36:40;4.55;;;2.53;;
75584;SDS011;64162;53.508;10.476;2023-02-21T11:39:25;7.07;;;4.72;;
75584;SDS011;64162;53.508;10.476;2023-02-21T11:41:58;10.45;;;4.22;;
75584;SDS011;64162;53.508;10.476;2023-02-21T11:44:30;10.95;;;4.53;;
75584;SDS011;64162;53.508;10.476;2023-02-21T11:47:13;5.03;;;2.90;;
75584;SDS011;64162;53.508;10.476;2023-02-21T11:52:54;10.63;;;6.95;;
75584;SDS011;64162;53.508;10.476;2023-02-21T11:55:27;11.10;;;3.60;;
75584;SDS011;64162;53.508;10.476;2023-02-21T12:00:42;9.18;;;2.25;;
75584;SDS011;64162;53.508;10.476;2023-02-21T12:03:24;7.28;;;3.03;;
75584;SDS011;64162;53.508;10.476;2023-02-21T12:06:14;9.15;;;6.10;;
75584;SDS011;64162;53.508;10.476;2023-02-21T12:09:03;6.32;;;1.65;;
75584;SDS011;64162;53.508;10.476;2023-02-21T12:11:40;5.07;;;1.52;;
75584;SDS011;64162;53.508;10.476;2023-02-21T12:14:38;6.78;;;1.30;;
75584;SDS011;64162;53.508;10.476;2023-02-21T12:17:26;10.65;;;2.08;;
75584;SDS011;64162;53.508;10.476;2023-02-21T12:20:24;9.40;;;2.88;;
75584;SDS011;64162;53.508;10.476;2023-02-21T12:23:17;3.83;;;1.63;;
75584;SDS011;64162;53.508;10.476;2023-02-21T12:25:53;16.63;;;2.90;;
75584;SDS011;64162;53.508;10.476;2023-02-21T12:33:53;4.03;;;1.30;;
75584;SDS011;64162;53.508;10.476;2023-02-21T12:45:21;4.68;;;1.90;;
75584;SDS011;64162;53.508;10.476;2023-02-21T12:50:45;7.07;;;1.00;;
75584;SDS011;64162;53.508;10.476;2023-02-21T12:53:21;8.57;;;2.05;;
75584;SDS011;64162;53.508;10.476;2023-02-21T12:55:58;8.05;;;2.10;;
75584;SDS011;64162;53.508;10.476;2023-02-21T12:58:42;10.35;;;2.67;;
75584;SDS011;64162;53.508;10.476;2023-02-21T13:01:20;5.13;;;1.45;;
75584;SDS011;64162;53.508;10.476;2023-02-21T13:03:59;4.50;;;1.05;;
75584;SDS011;64162;53.508;10.476;2023-02-21T13:06:57;10.88;;;2.20;;
75584;SDS011;64162;53.508;10.476;2023-02-21T13:09:31;8.82;;;8.10;;
75584;SDS011;64162;53.508;10.476;2023-02-21T13:12:03;3.03;;;1.60;;
75584;SDS011;64162;53.508;10.476;2023-02-21T13:17:11;6.03;;;0.47;;
75584;SDS011;64162;53.508;10.476;2023-02-21T13:25:36;6.10;;;0.93;;
75584;SDS011;64162;53.508;10.476;2023-02-21T13:28:21;5.85;;;1.50;;
75584;SDS011;64162;53.508;10.476;2023-02-21T13:30:51;7.38;;;1.42;;
75584;SDS011;64162;53.508;10.476;2023-02-21T13:33:40;4.18;;;1.60;;
75584;SDS011;64162;53.508;10.476;2023-02-21T13:38:59;6.13;;;5.53;;
75584;SDS011;64162;53.508;10.476;2023-02-21T13:41:29;3.63;;;0.88;;
75584;SDS011;64162;53.508;10.476;2023-02-21T13:44:03;7.25;;;0.65;;
75584;SDS011;64162;53.508;10.476;2023-02-21T13:57:50;5.05;;;0.75;;
75584;SDS011;64162;53.508;10.476;2023-02-21T14:08:13;5.88;;;0.75;;
75584;SDS011;64162;53.508;10.476;2023-02-21T14:10:44;6.78;;;1.77;;
75584;SDS011;64162;53.508;10.476;2023-02-21T14:13:37;4.85;;;0.30;;
75584;SDS011;64162;53.508;10.476;2023-02-21T14:21:09;6.43;;;1.58;;
75584;SDS011;64162;53.508;10.476;2023-02-21T14:23:44;1.83;;;0.73;;
75584;SDS011;64162;53.508;10.476;2023-02-21T14:34:22;10.02;;;9.25;;
75584;SDS011;64162;53.508;10.476;2023-02-21T14:36:53;7.63;;;2.45;;
75584;SDS011;64162;53.508;10.476;2023-02-21T14:39:29;3.42;;;1.92;;
75584;SDS011;64162;53.508;10.476;2023-02-21T14:42:04;3.60;;;1.45;;
75584;SDS011;64162;53.508;10.476;2023-02-21T14:59:28;7.30;;;0.43;;
75584;SDS011;64162;53.508;10.476;2023-02-21T15:01:46;3.05;;;0.52;;
75584;SDS011;64162;53.508;10.476;2023-02-21T15:09:44;4.97;;;0.80;;
75584;SDS011;64162;53.508;10.476;2023-02-21T15:12:29;4.78;;;0.50;;
75584;SDS011;64162;53.508;10.476;2023-02-21T15:14:55;4.18;;;0.57;;
75584;SDS011;64162;53.508;10.476;2023-02-21T15:17:23;5.38;;;0.50;;
75584;SDS011;64162;53.508;10.476;2023-02-21T15:20:05;5.35;;;1.73;;
75584;SDS011;64162;53.508;10.476;2023-02-21T15:22:38;4.55;;;1.27;;
75584;SDS011;64162;53.508;10.476;2023-02-21T15:30:13;7.32;;;1.65;;
75584;SDS011;64162;53.508;10.476;2023-02-21T15:32:42;4.82;;;1.17;;
75584;SDS011;64162;53.508;10.476;2023-02-21T15:35:11;4.03;;;0.73;;
75584;SDS011;64162;53.508;10.476;2023-02-21T15:37:47;8.90;;;0.47;;
75584;SDS011;64162;53.508;10.476;2023-02-21T15:40:15;3.60;;;1.13;;
75584;SDS011;64162;53.508;10.476;2023-02-21T15:42:45;8.13;;;6.38;;
75584;SDS011;64162;53.508;10.476;2023-02-21T15:45:18;5.60;;;0.75;;
75584;SDS011;64162;53.508;10.476;2023-02-21T15:47:55;5.38;;;2.13;;
75584;SDS011;64162;53.508;10.476;2023-02-21T16:04:52;5.88;;;0.63;;
75584;SDS011;64162;53.508;10.476;2023-02-21T16:14:04;3.53;;;1.30;;
75584;SDS011;64162;53.508;10.476;2023-02-21T16:16:33;3.13;;;0.32;;
75584;SDS011;64162;53.508;10.476;2023-02-21T16:19:02;5.50;;;0.17;;
75584;SDS011;64162;53.508;10.476;2023-02-21T16:21:38;7.25;;;0.60;;
75584;SDS011;64162;53.508;10.476;2023-02-21T16:24:26;3.78;;;0.60;;
75584;SDS011;64162;53.508;10.476;2023-02-21T16:27:01;2.72;;;0.50;;
75584;SDS011;64162;53.508;10.476;2023-02-21T16:29:31;6.53;;;0.20;;
75584;SDS011;64162;53.508;10.476;2023-02-21T16:31:58;2.53;;;0.43;;
75584;SDS011;64162;53.508;10.476;2023-02-21T16:34:25;5.65;;;0.93;;
75584;SDS011;64162;53.508;10.476;2023-02-21T16:36:59;5.82;;;0.38;;
75584;SDS011;64162;53.508;10.476;2023-02-21T16:39:27;5.80;;;0.55;;
75584;SDS011;64162;53.508;10.476;2023-02-21T16:44:22;4.55;;;0.03;;
75584;SDS011;64162;53.508;10.476;2023-02-21T16:46:49;7.53;;;0.70;;
75584;SDS011;64162;53.508;10.476;2023-02-21T16:49:16;11.13;;;3.40;;
75584;SDS011;64162;53.508;10.476;2023-02-21T16:51:43;3.85;;;0.47;;
75584;SDS011;64162;53.508;10.476;2023-02-21T16:54:09;6.63;;;0.25;;
75584;SDS011;64162;53.508;10.476;2023-02-21T16:56:39;8.88;;;1.15;;
75584;SDS011;64162;53.508;10.476;2023-02-21T16:59:08;4.15;;;0.20;;
75584;SDS011;64162;53.508;10.476;2023-02-21T17:01:36;4.53;;;0.22;;
75584;SDS011;64162;53.508;10.476;2023-02-21T17:04:27;5.80;;;0.38;;
75584;SDS011;64162;53.508;10.476;2023-02-21T17:07:32;5.93;;;0.55;;
75584;SDS011;64162;53.508;10.476;2023-02-21T17:15:57;4.40;;;0.20;;
75584;SDS011;64162;53.508;10.476;2023-02-21T17:18:23;6.45;;;0.25;;
75584;SDS011;64162;53.508;10.476;2023-02-21T17:20:51;4.80;;;0.55;;
75584;SDS011;64162;53.508;10.476;2023-02-21T17:32:12;5.90;;;0.40;;
75584;SDS011;64162;53.508;10.476;2023-02-21T17:34:41;5.75;;;0.75;;
75584;SDS011;64162;53.508;10.476;2023-02-21T17:37:08;3.58;;;1.95;;
75584;SDS011;64162;53.508;10.476;2023-02-21T17:39:35;3.92;;;0.52;;
75584;SDS011;64162;53.508;10.476;2023-02-21T17:42:02;6.35;;;0.30;;
75584;SDS011;64162;53.508;10.476;2023-02-21T17:44:28;5.45;;;0.50;;
75584;SDS011;64162;53.508;10.476;2023-02-21T17:46:55;4.25;;;0.82;;
75584;SDS011;64162;53.508;10.476;2023-02-21T17:49:24;2.92;;;2.33;;
75584;SDS011;64162;53.508;10.476;2023-02-21T17:51:52;7.45;;;0.82;;
75584;SDS011;64162;53.508;10.476;2023-02-21T17:54:21;2.75;;;0.10;;
75584;SDS011;64162;53.508;10.476;2023-02-21T17:56:49;3.63;;;0.80;;
75584;SDS011;64162;53.508;10.476;2023-02-21T17:59:17;2.90;;;0.20;;
75584;SDS011;64162;53.508;10.476;2023-02-21T18:01:44;7.30;;;0.57;;
75584;SDS011;64162;53.508;10.476;2023-02-21T18:04:12;5.47;;;0.55;;
75584;SDS011;64162;53.508;10.476;2023-02-21T18:06:39;3.78;;;0.38;;
75584;SDS011;64162;53.508;10.476;2023-02-21T18:09:07;5.00;;;0.15;;
75584;SDS011;64162;53.508;10.476;2023-02-21T18:11:34;5.82;;;1.15;;
75584;SDS011;64162;53.508;10.476;2023-02-21T18:14:01;5.68;;;0.80;;
75584;SDS011;64162;53.508;10.476;2023-02-21T18:16:28;2.72;;;0.28;;